sensor_id;sensor_type;location;lat;lon;timestamp;P1;durP1;ratioP1;P2;durP2;ratioP2
9559;SDS011;4818;50.860;4.648;2023-07-13T00:01:47;3.30;;;0.47;;
9559;SDS011;4818;50.860;4.648;2023-07-13T00:06:43;6.95;;;0.60;;
9559;SDS011;4818;50.860;4.648;2023-07-13T00:09:11;4.78;;;0.60;;
9559;SDS011;4818;50.860;4.648;2023-07-13T00:11:37;5.03;;;0.65;;
9559;SDS011;4818;50.860;4.648;2023-07-13T00:14:04;2.15;;;0.30;;
9559;SDS011;4818;50.860;4.648;2023-07-13T00:16:30;8.95;;;0.93;;
9559;SDS011;4818;50.860;4.648;2023-07-13T00:18:56;5.10;;;0.40;;
9559;SDS011;4818;50.860;4.648;2023-07-13T00:21:25;4.05;;;0.45;;
9559;SDS011;4818;50.860;4.648;2023-07-13T00:23:51;9.65;;;0.77;;
9559;SDS011;4818;50.860;4.648;2023-07-13T00:26:17;7.20;;;1.00;;
9559;SDS011;4818;50.860;4.648;2023-07-13T00:28:43;7.28;;;0.60;;
9559;SDS011;4818;50.860;4.648;2023-07-13T00:31:10;2.75;;;0.40;;
9559;SDS011;4818;50.860;4.648;2023-07-13T00:33:37;5.97;;;1.05;;
9559;SDS011;4818;50.860;4.648;2023-07-13T00:36:03;9.60;;;0.50;;
9559;SDS011;4818;50.860;4.648;2023-07-13T00:38:29;3.95;;;0.47;;
9559;SDS011;4818;50.860;4.648;2023-07-13T00:40:57;7.47;;;0.40;;
9559;SDS011;4818;50.860;4.648;2023-07-13T00:43:24;3.83;;;0.40;;
9559;SDS011;4818;50.860;4.648;2023-07-13T00:48:18;8.07;;;0.70;;
9559;SDS011;4818;50.860;4.648;2023-07-13T00:50:47;3.75;;;0.60;;
9559;SDS011;4818;50.860;4.648;2023-07-13T00:53:13;2.88;;;0.60;;
9559;SDS011;4818;50.860;4.648;2023-07-13T00:55:39;5.88;;;0.90;;
9559;SDS011;4818;50.860;4.648;2023-07-13T00:58:06;9.60;;;1.23;;
9559;SDS011;4818;50.860;4.648;2023-07-13T01:00:33;7.45;;;0.75;;
9559;SDS011;4818;50.860;4.648;2023-07-13T01:03:00;7.10;;;0.40;;
9559;SDS011;4818;50.860;4.648;2023-07-13T01:05:29;4.47;;;0.80;;
9559;SDS011;4818;50.860;4.648;2023-07-13T01:07:56;6.53;;;0.60;;
9559;SDS011;4818;50.860;4.648;2023-07-13T01:10:23;4.15;;;0.65;;
9559;SDS011;4818;50.860;4.648;2023-07-13T01:12:49;3.90;;;0.77;;
9559;SDS011;4818;50.860;4.648;2023-07-13T01:15:49;5.50;;;0.40;;
9559;SDS011;4818;50.860;4.648;2023-07-13T01:18:10;3.08;;;0.90;;
9559;SDS011;4818;50.860;4.648;2023-07-13T01:20:37;2.35;;;0.52;;
9559;SDS011;4818;50.860;4.648;2023-07-13T01:23:06;7.13;;;0.60;;
9559;SDS011;4818;50.860;4.648;2023-07-13T01:25:34;2.97;;;0.40;;
9559;SDS011;4818;50.860;4.648;2023-07-13T01:28:01;6.78;;;1.02;;
9559;SDS011;4818;50.860;4.648;2023-07-13T01:30:27;5.93;;;0.60;;
9559;SDS011;4818;50.860;4.648;2023-07-13T01:32:54;5.82;;;0.50;;
9559;SDS011;4818;50.860;4.648;2023-07-13T01:35:20;2.45;;;0.40;;
9559;SDS011;4818;50.860;4.648;2023-07-13T01:37:47;3.17;;;0.50;;
9559;SDS011;4818;50.860;4.648;2023-07-13T01:40:13;6.15;;;0.70;;
9559;SDS011;4818;50.860;4.648;2023-07-13T01:42:39;6.15;;;0.60;;
9559;SDS011;4818;50.860;4.648;2023-07-13T01:45:07;4.28;;;0.50;;
9559;SDS011;4818;50.860;4.648;2023-07-13T01:47:33;4.70;;;0.60;;
9559;SDS011;4818;50.860;4.648;2023-07-13T01:49:59;5.13;;;0.65;;
9559;SDS011;4818;50.860;4.648;2023-07-13T01:52:25;9.32;;;1.27;;
9559;SDS011;4818;50.860;4.648;2023-07-13T01:54:51;8.70;;;0.70;;
9559;SDS011;4818;50.860;4.648;2023-07-13T01:57:17;6.45;;;0.90;;
9559;SDS011;4818;50.860;4.648;2023-07-13T01:59:43;4.10;;;0.63;;
9559;SDS011;4818;50.860;4.648;2023-07-13T02:02:09;10.70;;;0.65;;
9559;SDS011;4818;50.860;4.648;2023-07-13T02:04:35;5.50;;;0.90;;
9559;SDS011;4818;50.860;4.648;2023-07-13T02:07:01;6.10;;;0.50;;
9559;SDS011;4818;50.860;4.648;2023-07-13T02:09:27;4.20;;;0.82;;
9559;SDS011;4818;50.860;4.648;2023-07-13T02:11:54;4.97;;;0.70;;
9559;SDS011;4818;50.860;4.648;2023-07-13T02:14:20;6.15;;;0.88;;
9559;SDS011;4818;50.860;4.648;2023-07-13T02:16:46;5.30;;;0.70;;
9559;SDS011;4818;50.860;4.648;2023-07-13T02:19:13;4.90;;;1.05;;
9559;SDS011;4818;50.860;4.648;2023-07-13T02:21:40;7.25;;;1.13;;
9559;SDS011;4818;50.860;4.648;2023-07-13T02:24:06;3.60;;;0.73;;
9559;SDS011;4818;50.860;4.648;2023-07-13T02:26:32;6.10;;;1.08;;
9559;SDS011;4818;50.860;4.648;2023-07-13T02:28:58;3.42;;;0.70;;
9559;SDS011;4818;50.860;4.648;2023-07-13T02:31:24;5.88;;;0.65;;
9559;SDS011;4818;50.860;4.648;2023-07-13T02:33:51;6.38;;;1.05;;
9559;SDS011;4818;50.860;4.648;2023-07-13T02:36:17;10.85;;;0.80;;
9559;SDS011;4818;50.860;4.648;2023-07-13T02:38:43;9.38;;;0.70;;
9559;SDS011;4818;50.860;4.648;2023-07-13T02:41:09;4.93;;;0.82;;
9559;SDS011;4818;50.860;4.648;2023-07-13T02:43:37;10.07;;;0.55;;
9559;SDS011;4818;50.860;4.648;2023-07-13T02:46:03;6.35;;;0.77;;
9559;SDS011;4818;50.860;4.648;2023-07-13T02:48:35;8.15;;;0.80;;
9559;SDS011;4818;50.860;4.648;2023-07-13T02:51:02;8.38;;;0.68;;
9559;SDS011;4818;50.860;4.648;2023-07-13T02:53:28;7.68;;;1.15;;
9559;SDS011;4818;50.860;4.648;2023-07-13T02:55:54;6.28;;;1.20;;
9559;SDS011;4818;50.860;4.648;2023-07-13T02:58:21;6.43;;;0.55;;
9559;SDS011;4818;50.860;4.648;2023-07-13T03:00:47;9.27;;;1.02;;
9559;SDS011;4818;50.860;4.648;2023-07-13T03:03:15;6.70;;;0.57;;
9559;SDS011;4818;50.860;4.648;2023-07-13T03:05:42;7.32;;;0.75;;
9559;SDS011;4818;50.860;4.648;2023-07-13T03:08:09;4.20;;;1.15;;
9559;SDS011;4818;50.860;4.648;2023-07-13T03:10:35;5.00;;;1.00;;
9559;SDS011;4818;50.860;4.648;2023-07-13T03:13:02;7.55;;;1.00;;
9559;SDS011;4818;50.860;4.648;2023-07-13T03:15:28;8.27;;;0.73;;
9559;SDS011;4818;50.860;4.648;2023-07-13T03:17:54;8.52;;;0.65;;
9559;SDS011;4818;50.860;4.648;2023-07-13T03:20:20;4.68;;;0.60;;
9559;SDS011;4818;50.860;4.648;2023-07-13T03:22:46;9.48;;;1.50;;
9559;SDS011;4818;50.860;4.648;2023-07-13T03:25:12;15.25;;;1.17;;
9559;SDS011;4818;50.860;4.648;2023-07-13T03:27:38;4.90;;;1.30;;
9559;SDS011;4818;50.860;4.648;2023-07-13T03:30:05;10.35;;;1.02;;
9559;SDS011;4818;50.860;4.648;2023-07-13T03:32:31;5.47;;;1.15;;
9559;SDS011;4818;50.860;4.648;2023-07-13T03:34:57;6.43;;;0.82;;
9559;SDS011;4818;50.860;4.648;2023-07-13T03:37:24;5.13;;;0.60;;
9559;SDS011;4818;50.860;4.648;2023-07-13T03:39:50;6.72;;;1.20;;
9559;SDS011;4818;50.860;4.648;2023-07-13T03:42:16;6.90;;;0.73;;
9559;SDS011;4818;50.860;4.648;2023-07-13T03:44:42;5.90;;;0.68;;
9559;SDS011;4818;50.860;4.648;2023-07-13T03:47:15;6.68;;;0.80;;
9559;SDS011;4818;50.860;4.648;2023-07-13T03:49:41;7.78;;;0.82;;
9559;SDS011;4818;50.860;4.648;2023-07-13T03:52:07;6.45;;;1.13;;
9559;SDS011;4818;50.860;4.648;2023-07-13T03:54:33;6.07;;;1.05;;
9559;SDS011;4818;50.860;4.648;2023-07-13T03:56:59;13.48;;;1.13;;
9559;SDS011;4818;50.860;4.648;2023-07-13T03:59:25;7.72;;;1.50;;
9559;SDS011;4818;50.860;4.648;2023-07-13T04:01:52;5.72;;;1.00;;
9559;SDS011;4818;50.860;4.648;2023-07-13T04:04:20;5.10;;;0.70;;
9559;SDS011;4818;50.860;4.648;2023-07-13T04:06:46;5.55;;;0.85;;
9559;SDS011;4818;50.860;4.648;2023-07-13T04:09:13;5.57;;;0.80;;
9559;SDS011;4818;50.860;4.648;2023-07-13T04:11:39;7.15;;;0.90;;
9559;SDS011;4818;50.860;4.648;2023-07-13T04:14:05;7.10;;;1.10;;
9559;SDS011;4818;50.860;4.648;2023-07-13T04:16:31;6.40;;;0.82;;
9559;SDS011;4818;50.860;4.648;2023-07-13T04:18:57;5.82;;;0.93;;
9559;SDS011;4818;50.860;4.648;2023-07-13T04:21:27;6.53;;;0.93;;
9559;SDS011;4818;50.860;4.648;2023-07-13T04:23:53;7.50;;;0.75;;
9559;SDS011;4818;50.860;4.648;2023-07-13T04:26:19;7.97;;;1.13;;
9559;SDS011;4818;50.860;4.648;2023-07-13T04:28:46;7.00;;;0.75;;
9559;SDS011;4818;50.860;4.648;2023-07-13T04:31:12;5.47;;;0.98;;
9559;SDS011;4818;50.860;4.648;2023-07-13T04:33:38;7.45;;;1.02;;
9559;SDS011;4818;50.860;4.648;2023-07-13T04:36:05;12.82;;;0.88;;
9559;SDS011;4818;50.860;4.648;2023-07-13T04:38:32;4.93;;;0.70;;
9559;SDS011;4818;50.860;4.648;2023-07-13T04:41:00;7.40;;;1.13;;
9559;SDS011;4818;50.860;4.648;2023-07-13T04:43:27;3.35;;;0.70;;
9559;SDS011;4818;50.860;4.648;2023-07-13T04:45:53;10.95;;;1.48;;
9559;SDS011;4818;50.860;4.648;2023-07-13T04:48:20;9.60;;;1.40;;
9559;SDS011;4818;50.860;4.648;2023-07-13T04:50:46;9.55;;;1.52;;
9559;SDS011;4818;50.860;4.648;2023-07-13T04:53:12;6.85;;;1.15;;
9559;SDS011;4818;50.860;4.648;2023-07-13T04:55:39;4.05;;;0.90;;
9559;SDS011;4818;50.860;4.648;2023-07-13T04:58:06;7.70;;;1.20;;
9559;SDS011;4818;50.860;4.648;2023-07-13T05:00:32;12.85;;;1.20;;
9559;SDS011;4818;50.860;4.648;2023-07-13T05:02:58;7.65;;;1.92;;
9559;SDS011;4818;50.860;4.648;2023-07-13T05:05:25;7.95;;;1.17;;
9559;SDS011;4818;50.860;4.648;2023-07-13T05:07:51;8.82;;;1.60;;
9559;SDS011;4818;50.860;4.648;2023-07-13T05:10:18;10.98;;;1.10;;
9559;SDS011;4818;50.860;4.648;2023-07-13T05:12:44;8.38;;;1.15;;
9559;SDS011;4818;50.860;4.648;2023-07-13T05:15:10;7.03;;;0.85;;
9559;SDS011;4818;50.860;4.648;2023-07-13T05:17:36;10.27;;;1.17;;
9559;SDS011;4818;50.860;4.648;2023-07-13T05:20:04;12.05;;;1.75;;
9559;SDS011;4818;50.860;4.648;2023-07-13T05:22:30;9.23;;;1.30;;
9559;SDS011;4818;50.860;4.648;2023-07-13T05:24:57;6.65;;;1.10;;
9559;SDS011;4818;50.860;4.648;2023-07-13T05:27:23;14.63;;;1.38;;
9559;SDS011;4818;50.860;4.648;2023-07-13T05:29:49;10.77;;;0.95;;
9559;SDS011;4818;50.860;4.648;2023-07-13T05:32:15;9.95;;;1.23;;
9559;SDS011;4818;50.860;4.648;2023-07-13T05:34:41;8.27;;;1.65;;
9559;SDS011;4818;50.860;4.648;2023-07-13T05:37:07;7.95;;;1.08;;
9559;SDS011;4818;50.860;4.648;2023-07-13T05:39:33;9.23;;;1.67;;
9559;SDS011;4818;50.860;4.648;2023-07-13T05:41:59;10.57;;;1.85;;
9559;SDS011;4818;50.860;4.648;2023-07-13T05:44:25;12.10;;;1.15;;
9559;SDS011;4818;50.860;4.648;2023-07-13T05:46:52;9.60;;;1.15;;
9559;SDS011;4818;50.860;4.648;2023-07-13T05:49:18;8.35;;;1.13;;
9559;SDS011;4818;50.860;4.648;2023-07-13T05:51:44;9.15;;;1.90;;
9559;SDS011;4818;50.860;4.648;2023-07-13T05:54:10;13.00;;;1.85;;
9559;SDS011;4818;50.860;4.648;2023-07-13T05:56:36;14.68;;;1.85;;
9559;SDS011;4818;50.860;4.648;2023-07-13T05:59:02;11.63;;;1.23;;
9559;SDS011;4818;50.860;4.648;2023-07-13T06:01:29;7.78;;;1.30;;
9559;SDS011;4818;50.860;4.648;2023-07-13T06:03:56;11.75;;;1.70;;
9559;SDS011;4818;50.860;4.648;2023-07-13T06:06:22;7.15;;;1.05;;
9559;SDS011;4818;50.860;4.648;2023-07-13T06:08:48;6.30;;;0.85;;
9559;SDS011;4818;50.860;4.648;2023-07-13T06:11:16;11.57;;;2.00;;
9559;SDS011;4818;50.860;4.648;2023-07-13T06:13:43;8.00;;;1.33;;
9559;SDS011;4818;50.860;4.648;2023-07-13T06:16:09;11.68;;;1.23;;
9559;SDS011;4818;50.860;4.648;2023-07-13T06:18:36;12.02;;;1.50;;
9559;SDS011;4818;50.860;4.648;2023-07-13T06:21:09;11.68;;;0.93;;
9559;SDS011;4818;50.860;4.648;2023-07-13T06:23:35;9.02;;;1.15;;
9559;SDS011;4818;50.860;4.648;2023-07-13T06:26:02;11.38;;;1.70;;
9559;SDS011;4818;50.860;4.648;2023-07-13T06:28:28;9.85;;;1.08;;
9559;SDS011;4818;50.860;4.648;2023-07-13T06:30:55;8.05;;;1.30;;
9559;SDS011;4818;50.860;4.648;2023-07-13T06:33:21;10.70;;;1.02;;
9559;SDS011;4818;50.860;4.648;2023-07-13T06:35:47;13.02;;;2.15;;
9559;SDS011;4818;50.860;4.648;2023-07-13T06:38:13;12.60;;;1.60;;
9559;SDS011;4818;50.860;4.648;2023-07-13T06:40:39;10.63;;;1.73;;
9559;SDS011;4818;50.860;4.648;2023-07-13T06:43:05;6.75;;;1.23;;
9559;SDS011;4818;50.860;4.648;2023-07-13T06:45:32;12.05;;;1.52;;
9559;SDS011;4818;50.860;4.648;2023-07-13T06:47:58;10.07;;;1.65;;
9559;SDS011;4818;50.860;4.648;2023-07-13T06:50:25;9.32;;;1.52;;
9559;SDS011;4818;50.860;4.648;2023-07-13T06:52:51;12.07;;;1.83;;
9559;SDS011;4818;50.860;4.648;2023-07-13T06:55:18;6.97;;;0.90;;
9559;SDS011;4818;50.860;4.648;2023-07-13T06:57:44;11.90;;;1.65;;
9559;SDS011;4818;50.860;4.648;2023-07-13T07:00:10;7.60;;;1.40;;
9559;SDS011;4818;50.860;4.648;2023-07-13T07:02:36;13.63;;;1.85;;
9559;SDS011;4818;50.860;4.648;2023-07-13T07:05:02;5.78;;;0.77;;
9559;SDS011;4818;50.860;4.648;2023-07-13T07:07:28;9.40;;;1.23;;
9559;SDS011;4818;50.860;4.648;2023-07-13T07:09:54;7.75;;;1.10;;
9559;SDS011;4818;50.860;4.648;2023-07-13T07:12:20;9.85;;;1.23;;
9559;SDS011;4818;50.860;4.648;2023-07-13T07:14:47;12.85;;;1.50;;
9559;SDS011;4818;50.860;4.648;2023-07-13T07:17:13;14.43;;;1.20;;
9559;SDS011;4818;50.860;4.648;2023-07-13T07:19:39;17.25;;;1.90;;
9559;SDS011;4818;50.860;4.648;2023-07-13T07:22:06;14.63;;;2.20;;
9559;SDS011;4818;50.860;4.648;2023-07-13T07:24:32;10.68;;;1.73;;
9559;SDS011;4818;50.860;4.648;2023-07-13T07:26:58;9.63;;;1.77;;
9559;SDS011;4818;50.860;4.648;2023-07-13T07:29:24;14.23;;;2.33;;
9559;SDS011;4818;50.860;4.648;2023-07-13T07:31:52;10.63;;;1.63;;
9559;SDS011;4818;50.860;4.648;2023-07-13T07:34:18;11.75;;;1.58;;
9559;SDS011;4818;50.860;4.648;2023-07-13T07:36:45;16.73;;;1.58;;
9559;SDS011;4818;50.860;4.648;2023-07-13T07:39:11;9.98;;;1.52;;
9559;SDS011;4818;50.860;4.648;2023-07-13T07:41:38;17.98;;;1.65;;
9559;SDS011;4818;50.860;4.648;2023-07-13T07:44:04;9.13;;;1.10;;
9559;SDS011;4818;50.860;4.648;2023-07-13T07:46:32;5.55;;;0.90;;
9559;SDS011;4818;50.860;4.648;2023-07-13T07:48:58;9.05;;;1.92;;
9559;SDS011;4818;50.860;4.648;2023-07-13T07:51:24;8.70;;;0.88;;
9559;SDS011;4818;50.860;4.648;2023-07-13T07:53:51;11.88;;;1.30;;
9559;SDS011;4818;50.860;4.648;2023-07-13T07:56:17;8.23;;;1.38;;
9559;SDS011;4818;50.860;4.648;2023-07-13T07:58:45;9.82;;;1.35;;
9559;SDS011;4818;50.860;4.648;2023-07-13T08:01:11;7.20;;;1.23;;
9559;SDS011;4818;50.860;4.648;2023-07-13T08:03:37;4.47;;;0.82;;
9559;SDS011;4818;50.860;4.648;2023-07-13T08:06:03;10.85;;;1.25;;
9559;SDS011;4818;50.860;4.648;2023-07-13T08:08:29;9.32;;;0.93;;
9559;SDS011;4818;50.860;4.648;2023-07-13T08:10:55;5.53;;;1.08;;
9559;SDS011;4818;50.860;4.648;2023-07-13T08:13:22;11.55;;;1.55;;
9559;SDS011;4818;50.860;4.648;2023-07-13T08:15:48;10.40;;;1.23;;
9559;SDS011;4818;50.860;4.648;2023-07-13T08:18:14;8.27;;;1.70;;
9559;SDS011;4818;50.860;4.648;2023-07-13T08:20:41;11.55;;;1.40;;
9559;SDS011;4818;50.860;4.648;2023-07-13T08:23:07;6.38;;;0.80;;
9559;SDS011;4818;50.860;4.648;2023-07-13T08:25:35;4.50;;;0.68;;
9559;SDS011;4818;50.860;4.648;2023-07-13T08:28:02;8.82;;;1.15;;
9559;SDS011;4818;50.860;4.648;2023-07-13T08:30:28;10.73;;;1.15;;
9559;SDS011;4818;50.860;4.648;2023-07-13T08:32:54;4.72;;;0.90;;
9559;SDS011;4818;50.860;4.648;2023-07-13T08:35:20;6.47;;;1.05;;
9559;SDS011;4818;50.860;4.648;2023-07-13T08:37:46;3.83;;;0.80;;
9559;SDS011;4818;50.860;4.648;2023-07-13T08:40:12;5.43;;;0.85;;
9559;SDS011;4818;50.860;4.648;2023-07-13T08:42:45;5.93;;;0.57;;
9559;SDS011;4818;50.860;4.648;2023-07-13T08:45:22;3.20;;;0.57;;
9559;SDS011;4818;50.860;4.648;2023-07-13T08:47:52;4.32;;;0.60;;
9559;SDS011;4818;50.860;4.648;2023-07-13T08:50:19;3.83;;;0.50;;
9559;SDS011;4818;50.860;4.648;2023-07-13T08:52:49;8.45;;;1.02;;
9559;SDS011;4818;50.860;4.648;2023-07-13T08:55:16;3.78;;;0.82;;
9559;SDS011;4818;50.860;4.648;2023-07-13T08:57:44;8.73;;;0.70;;
9559;SDS011;4818;50.860;4.648;2023-07-13T09:00:11;3.22;;;0.65;;
9559;SDS011;4818;50.860;4.648;2023-07-13T09:02:46;3.55;;;0.50;;
9559;SDS011;4818;50.860;4.648;2023-07-13T09:05:18;6.85;;;0.88;;
9559;SDS011;4818;50.860;4.648;2023-07-13T09:10:43;2.92;;;0.50;;
9559;SDS011;4818;50.860;4.648;2023-07-13T09:13:14;7.03;;;0.73;;
9559;SDS011;4818;50.860;4.648;2023-07-13T09:15:45;3.63;;;0.30;;
9559;SDS011;4818;50.860;4.648;2023-07-13T09:18:22;4.20;;;0.40;;
9559;SDS011;4818;50.860;4.648;2023-07-13T09:20:57;3.97;;;0.52;;
9559;SDS011;4818;50.860;4.648;2023-07-13T09:23:24;4.72;;;0.60;;
9559;SDS011;4818;50.860;4.648;2023-07-13T09:25:56;8.93;;;0.60;;
9559;SDS011;4818;50.860;4.648;2023-07-13T09:28:28;6.43;;;0.60;;
9559;SDS011;4818;50.860;4.648;2023-07-13T09:33:37;5.57;;;0.43;;
9559;SDS011;4818;50.860;4.648;2023-07-13T09:38:49;5.57;;;0.50;;
9559;SDS011;4818;50.860;4.648;2023-07-13T09:41:26;2.88;;;0.30;;
9559;SDS011;4818;50.860;4.648;2023-07-13T09:46:33;4.30;;;0.50;;
9559;SDS011;4818;50.860;4.648;2023-07-13T09:49:00;2.72;;;0.40;;
9559;SDS011;4818;50.860;4.648;2023-07-13T09:51:26;2.30;;;0.32;;
9559;SDS011;4818;50.860;4.648;2023-07-13T09:53:52;1.70;;;0.43;;
9559;SDS011;4818;50.860;4.648;2023-07-13T09:56:23;6.32;;;0.43;;
9559;SDS011;4818;50.860;4.648;2023-07-13T09:58:50;3.25;;;0.60;;
9559;SDS011;4818;50.860;4.648;2023-07-13T10:01:17;2.40;;;0.40;;
9559;SDS011;4818;50.860;4.648;2023-07-13T10:03:56;3.60;;;0.40;;
9559;SDS011;4818;50.860;4.648;2023-07-13T10:06:23;3.92;;;0.40;;
9559;SDS011;4818;50.860;4.648;2023-07-13T10:08:51;4.25;;;0.32;;
9559;SDS011;4818;50.860;4.648;2023-07-13T10:11:22;2.88;;;0.50;;
9559;SDS011;4818;50.860;4.648;2023-07-13T10:16:14;4.53;;;0.88;;
9559;SDS011;4818;50.860;4.648;2023-07-13T10:21:15;4.20;;;0.40;;
9559;SDS011;4818;50.860;4.648;2023-07-13T10:23:43;4.35;;;0.40;;
9559;SDS011;4818;50.860;4.648;2023-07-13T10:26:16;3.17;;;0.45;;
9559;SDS011;4818;50.860;4.648;2023-07-13T10:28:44;3.17;;;0.35;;
9559;SDS011;4818;50.860;4.648;2023-07-13T10:31:13;3.85;;;0.50;;
9559;SDS011;4818;50.860;4.648;2023-07-13T10:33:40;2.38;;;0.43;;
9559;SDS011;4818;50.860;4.648;2023-07-13T10:38:34;6.47;;;0.60;;
9559;SDS011;4818;50.860;4.648;2023-07-13T10:41:04;2.42;;;0.38;;
9559;SDS011;4818;50.860;4.648;2023-07-13T10:43:33;3.88;;;0.40;;
9559;SDS011;4818;50.860;4.648;2023-07-13T10:46:02;7.03;;;0.82;;
9559;SDS011;4818;50.860;4.648;2023-07-13T10:48:29;4.20;;;0.55;;
9559;SDS011;4818;50.860;4.648;2023-07-13T10:50:57;2.65;;;0.43;;
9559;SDS011;4818;50.860;4.648;2023-07-13T10:53:33;7.05;;;0.55;;
9559;SDS011;4818;50.860;4.648;2023-07-13T10:56:23;6.32;;;0.60;;
9559;SDS011;4818;50.860;4.648;2023-07-13T10:59:01;1.50;;;0.30;;
9559;SDS011;4818;50.860;4.648;2023-07-13T11:01:38;1.90;;;0.30;;
9559;SDS011;4818;50.860;4.648;2023-07-13T11:04:05;3.88;;;0.57;;
9559;SDS011;4818;50.860;4.648;2023-07-13T11:06:38;2.67;;;0.57;;
9559;SDS011;4818;50.860;4.648;2023-07-13T11:11:48;4.18;;;0.50;;
9559;SDS011;4818;50.860;4.648;2023-07-13T11:14:29;1.55;;;0.28;;
9559;SDS011;4818;50.860;4.648;2023-07-13T11:16:55;3.10;;;0.30;;
9559;SDS011;4818;50.860;4.648;2023-07-13T11:24:49;4.30;;;0.40;;
9559;SDS011;4818;50.860;4.648;2023-07-13T11:27:22;3.97;;;0.40;;
9559;SDS011;4818;50.860;4.648;2023-07-13T11:29:49;3.33;;;0.40;;
9559;SDS011;4818;50.860;4.648;2023-07-13T11:32:21;3.40;;;0.60;;
9559;SDS011;4818;50.860;4.648;2023-07-13T11:34:47;4.85;;;0.63;;
9559;SDS011;4818;50.860;4.648;2023-07-13T11:37:15;2.53;;;0.40;;
9559;SDS011;4818;50.860;4.648;2023-07-13T11:39:43;4.55;;;0.80;;
9559;SDS011;4818;50.860;4.648;2023-07-13T11:42:12;2.45;;;0.20;;
9559;SDS011;4818;50.860;4.648;2023-07-13T11:44:42;2.20;;;0.20;;
9559;SDS011;4818;50.860;4.648;2023-07-13T11:47:18;6.93;;;0.68;;
9559;SDS011;4818;50.860;4.648;2023-07-13T11:49:50;3.50;;;0.43;;
9559;SDS011;4818;50.860;4.648;2023-07-13T11:52:18;3.88;;;0.30;;
9559;SDS011;4818;50.860;4.648;2023-07-13T11:54:51;1.38;;;0.30;;
9559;SDS011;4818;50.860;4.648;2023-07-13T11:57:25;1.77;;;0.30;;
9559;SDS011;4818;50.860;4.648;2023-07-13T11:59:52;3.80;;;0.30;;
9559;SDS011;4818;50.860;4.648;2023-07-13T12:02:30;4.25;;;0.30;;
9559;SDS011;4818;50.860;4.648;2023-07-13T12:04:57;5.25;;;0.40;;
9559;SDS011;4818;50.860;4.648;2023-07-13T12:07:24;1.25;;;0.30;;
9559;SDS011;4818;50.860;4.648;2023-07-13T12:09:53;5.05;;;0.40;;
9559;SDS011;4818;50.860;4.648;2023-07-13T12:12:20;1.98;;;0.30;;
9559;SDS011;4818;50.860;4.648;2023-07-13T12:14:50;3.38;;;0.30;;
9559;SDS011;4818;50.860;4.648;2023-07-13T12:19:42;1.48;;;0.20;;
9559;SDS011;4818;50.860;4.648;2023-07-13T12:22:08;2.80;;;0.30;;
9559;SDS011;4818;50.860;4.648;2023-07-13T12:24:35;4.50;;;0.30;;
9559;SDS011;4818;50.860;4.648;2023-07-13T12:27:02;3.80;;;0.70;;
9559;SDS011;4818;50.860;4.648;2023-07-13T12:29:29;3.83;;;0.38;;
9559;SDS011;4818;50.860;4.648;2023-07-13T12:31:55;2.97;;;0.30;;
9559;SDS011;4818;50.860;4.648;2023-07-13T12:34:22;2.97;;;0.40;;
9559;SDS011;4818;50.860;4.648;2023-07-13T12:41:41;4.65;;;0.47;;
9559;SDS011;4818;50.860;4.648;2023-07-13T12:44:29;2.28;;;0.30;;
9559;SDS011;4818;50.860;4.648;2023-07-13T12:47:02;2.55;;;0.40;;
9559;SDS011;4818;50.860;4.648;2023-07-13T12:49:31;2.33;;;0.38;;
9559;SDS011;4818;50.860;4.648;2023-07-13T12:52:00;4.25;;;0.50;;
9559;SDS011;4818;50.860;4.648;2023-07-13T12:54:27;2.83;;;0.43;;
9559;SDS011;4818;50.860;4.648;2023-07-13T12:56:53;1.38;;;0.30;;
9559;SDS011;4818;50.860;4.648;2023-07-13T12:59:22;2.65;;;0.50;;
9559;SDS011;4818;50.860;4.648;2023-07-13T13:01:51;1.93;;;0.43;;
9559;SDS011;4818;50.860;4.648;2023-07-13T13:04:18;1.33;;;0.25;;
9559;SDS011;4818;50.860;4.648;2023-07-13T13:06:48;1.48;;;0.40;;
9559;SDS011;4818;50.860;4.648;2023-07-13T13:09:15;2.85;;;0.30;;
9559;SDS011;4818;50.860;4.648;2023-07-13T13:11:41;1.05;;;0.20;;
9559;SDS011;4818;50.860;4.648;2023-07-13T13:14:08;1.42;;;0.40;;
9559;SDS011;4818;50.860;4.648;2023-07-13T13:19:22;1.58;;;0.40;;
9559;SDS011;4818;50.860;4.648;2023-07-13T13:21:47;3.30;;;0.47;;
9559;SDS011;4818;50.860;4.648;2023-07-13T13:24:19;2.58;;;0.45;;
9559;SDS011;4818;50.860;4.648;2023-07-13T13:26:46;1.80;;;0.40;;
9559;SDS011;4818;50.860;4.648;2023-07-13T13:29:17;2.10;;;0.40;;
9559;SDS011;4818;50.860;4.648;2023-07-13T13:31:44;4.22;;;0.60;;
9559;SDS011;4818;50.860;4.648;2023-07-13T13:34:12;4.13;;;0.57;;
9559;SDS011;4818;50.860;4.648;2023-07-13T13:36:39;2.50;;;0.50;;
9559;SDS011;4818;50.860;4.648;2023-07-13T13:39:14;3.70;;;1.05;;
9559;SDS011;4818;50.860;4.648;2023-07-13T13:41:42;3.25;;;0.75;;
9559;SDS011;4818;50.860;4.648;2023-07-13T13:44:09;6.63;;;0.70;;
9559;SDS011;4818;50.860;4.648;2023-07-13T13:46:35;2.13;;;0.40;;
9559;SDS011;4818;50.860;4.648;2023-07-13T13:49:01;2.95;;;0.70;;
9559;SDS011;4818;50.860;4.648;2023-07-13T13:51:27;1.70;;;0.30;;
9559;SDS011;4818;50.860;4.648;2023-07-13T13:53:54;3.55;;;0.55;;
9559;SDS011;4818;50.860;4.648;2023-07-13T13:56:20;2.15;;;0.20;;
9559;SDS011;4818;50.860;4.648;2023-07-13T13:58:47;0.85;;;0.25;;
9559;SDS011;4818;50.860;4.648;2023-07-13T14:01:17;2.80;;;0.30;;
9559;SDS011;4818;50.860;4.648;2023-07-13T14:03:43;1.58;;;0.20;;
9559;SDS011;4818;50.860;4.648;2023-07-13T14:06:11;0.55;;;0.20;;
9559;SDS011;4818;50.860;4.648;2023-07-13T14:08:37;0.98;;;0.30;;
9559;SDS011;4818;50.860;4.648;2023-07-13T14:11:04;0.95;;;0.30;;
9559;SDS011;4818;50.860;4.648;2023-07-13T14:13:38;3.63;;;0.32;;
9559;SDS011;4818;50.860;4.648;2023-07-13T14:16:09;1.60;;;0.32;;
9559;SDS011;4818;50.860;4.648;2023-07-13T14:18:37;0.90;;;0.20;;
9559;SDS011;4818;50.860;4.648;2023-07-13T14:21:03;1.73;;;0.30;;
9559;SDS011;4818;50.860;4.648;2023-07-13T14:23:34;2.72;;;0.30;;
9559;SDS011;4818;50.860;4.648;2023-07-13T14:26:00;3.30;;;0.63;;
9559;SDS011;4818;50.860;4.648;2023-07-13T14:28:26;0.90;;;0.20;;
9559;SDS011;4818;50.860;4.648;2023-07-13T14:30:53;6.50;;;0.30;;
9559;SDS011;4818;50.860;4.648;2023-07-13T14:33:20;1.95;;;0.30;;
9559;SDS011;4818;50.860;4.648;2023-07-13T14:35:46;3.22;;;0.43;;
9559;SDS011;4818;50.860;4.648;2023-07-13T14:38:16;3.20;;;0.40;;
9559;SDS011;4818;50.860;4.648;2023-07-13T14:40:44;1.17;;;0.30;;
9559;SDS011;4818;50.860;4.648;2023-07-13T14:43:11;1.85;;;0.50;;
9559;SDS011;4818;50.860;4.648;2023-07-13T14:45:39;4.82;;;0.60;;
9559;SDS011;4818;50.860;4.648;2023-07-13T14:48:12;2.00;;;0.40;;
9559;SDS011;4818;50.860;4.648;2023-07-13T14:50:39;3.35;;;0.57;;
9559;SDS011;4818;50.860;4.648;2023-07-13T14:53:08;3.05;;;0.47;;
9559;SDS011;4818;50.860;4.648;2023-07-13T14:55:36;4.97;;;0.60;;
9559;SDS011;4818;50.860;4.648;2023-07-13T14:58:02;0.90;;;0.30;;
9559;SDS011;4818;50.860;4.648;2023-07-13T15:00:28;2.65;;;0.40;;
9559;SDS011;4818;50.860;4.648;2023-07-13T15:02:56;6.13;;;0.40;;
9559;SDS011;4818;50.860;4.648;2023-07-13T15:05:24;3.30;;;0.30;;
9559;SDS011;4818;50.860;4.648;2023-07-13T15:07:51;2.30;;;0.35;;
9559;SDS011;4818;50.860;4.648;2023-07-13T15:10:25;2.85;;;0.60;;
9559;SDS011;4818;50.860;4.648;2023-07-13T15:12:52;1.60;;;0.30;;
9559;SDS011;4818;50.860;4.648;2023-07-13T15:15:18;1.55;;;0.30;;
9559;SDS011;4818;50.860;4.648;2023-07-13T15:17:45;3.50;;;0.40;;
9559;SDS011;4818;50.860;4.648;2023-07-13T15:22:38;2.60;;;0.30;;
9559;SDS011;4818;50.860;4.648;2023-07-13T15:25:04;2.15;;;0.30;;
9559;SDS011;4818;50.860;4.648;2023-07-13T15:27:34;1.63;;;0.30;;
9559;SDS011;4818;50.860;4.648;2023-07-13T15:30:02;3.55;;;0.88;;
9559;SDS011;4818;50.860;4.648;2023-07-13T15:32:29;2.75;;;0.40;;
9559;SDS011;4818;50.860;4.648;2023-07-13T15:34:55;1.50;;;0.25;;
9559;SDS011;4818;50.860;4.648;2023-07-13T15:37:21;2.38;;;0.20;;
9559;SDS011;4818;50.860;4.648;2023-07-13T15:39:47;3.45;;;0.38;;
9559;SDS011;4818;50.860;4.648;2023-07-13T15:42:14;0.70;;;0.20;;
9559;SDS011;4818;50.860;4.648;2023-07-13T15:44:43;2.22;;;0.43;;
9559;SDS011;4818;50.860;4.648;2023-07-13T15:47:13;1.58;;;0.38;;
9559;SDS011;4818;50.860;4.648;2023-07-13T15:49:41;2.40;;;0.40;;
9559;SDS011;4818;50.860;4.648;2023-07-13T15:52:16;1.67;;;0.30;;
9559;SDS011;4818;50.860;4.648;2023-07-13T15:54:43;4.97;;;0.40;;
9559;SDS011;4818;50.860;4.648;2023-07-13T15:57:09;1.30;;;0.30;;
9559;SDS011;4818;50.860;4.648;2023-07-13T15:59:37;2.65;;;0.38;;